createdAt,value
2022-08-26T00:00:02.903Z,8.00
2022-08-26T00:00:59.293Z,8.30
2022-08-26T00:01:46.186Z,8.43
2022-08-26T00:02:32.715Z,9.09
2022-08-26T00:03:20.050Z,8.20
2022-08-26T00:04:06.562Z,7.99
2022-08-26T00:04:53.040Z,8.22
2022-08-26T00:05:40.679Z,8.64
2022-08-26T00:06:28.391Z,8.72
2022-08-26T00:07:14.883Z,8.68
2022-08-26T00:08:01.538Z,8.78
2022-08-26T00:08:48.286Z,8.36
2022-08-26T00:09:37.289Z,8.33
2022-08-26T00:10:27.090Z,8.55
2022-08-26T00:11:14.425Z,9.05
2022-08-26T00:12:00.953Z,8.85
2022-08-26T00:12:47.727Z,8.59
2022-08-26T00:13:35.150Z,8.73
2022-08-26T00:14:27.169Z,8.70
2022-08-26T00:15:19.666Z,9.13
2022-08-26T00:16:08.156Z,9.39
2022-08-26T00:16:58.570Z,8.90
2022-08-26T00:17:46.218Z,9.36
2022-08-26T00:18:38.680Z,9.24
2022-08-26T00:19:27.298Z,8.56
2022-08-26T00:20:17.443Z,8.52
2022-08-26T00:21:06.525Z,8.98
2022-08-26T00:21:53.329Z,8.88
2022-08-26T00:22:40.642Z,8.84
2022-08-26T00:23:27.089Z,9.08
2022-08-26T00:24:18.249Z,8.95
2022-08-26T00:25:07.244Z,9.06
2022-08-26T00:25:56.856Z,8.86
2022-08-26T00:26:43.733Z,8.38
2022-08-26T00:27:33.848Z,8.38
2022-08-26T00:28:21.823Z,8.96
2022-08-26T00:29:08.531Z,8.83
2022-08-26T00:29:56.020Z,9.11
2022-08-26T00:30:43.358Z,8.82
2022-08-26T00:31:32.871Z,9.04
2022-08-26T00:32:19.295Z,8.92
2022-08-26T00:33:07.236Z,8.87
2022-08-26T00:33:53.896Z,9.00
2022-08-26T00:34:42.511Z,8.72
2022-08-26T00:35:29.677Z,9.06
2022-08-26T00:36:20.585Z,8.86
2022-08-26T00:37:08.959Z,9.18
2022-08-26T00:37:57.533Z,9.22
2022-08-26T00:38:44.465Z,8.85
2022-08-26T00:39:32.523Z,8.66
2022-08-26T00:40:24.416Z,8.93
2022-08-26T00:41:11.112Z,8.41
2022-08-26T00:42:00.363Z,8.23
2022-08-26T00:42:47.097Z,8.48
2022-08-26T00:43:46.241Z,8.54
2022-08-26T00:44:34.415Z,8.37
2022-08-26T00:45:21.123Z,8.35
2022-08-26T00:46:33.433Z,8.68
2022-08-26T00:47:32.078Z,8.61
2022-08-26T00:48:22.727Z,9.20
2022-08-26T00:49:15.757Z,8.93
2022-08-26T00:50:10.787Z,9.40
2022-08-26T00:51:09.195Z,8.96
2022-08-26T00:52:02.839Z,9.63
2022-08-26T00:52:52.139Z,9.42
2022-08-26T00:53:45.922Z,10.74
2022-08-26T00:54:40.323Z,12.05
2022-08-26T00:55:41.385Z,12.13
2022-08-26T00:56:41.547Z,14.35
2022-08-26T00:57:28.783Z,12.44
2022-08-26T00:58:15.463Z,12.50
2022-08-26T00:59:08.023Z,13.65
2022-08-26T00:59:58.805Z,13.89
2022-08-26T01:00:45.606Z,15.68
2022-08-26T01:01:33.081Z,16.82
2022-08-26T01:02:21.084Z,16.28
2022-08-26T01:03:11.490Z,16.16
2022-08-26T01:03:59.986Z,16.17
2022-08-26T01:04:48.464Z,16.10
2022-08-26T01:05:42.170Z,15.77
2022-08-26T01:06:29.739Z,17.17
2022-08-26T01:07:17.038Z,17.74
2022-08-26T01:08:03.764Z,18.86
2022-08-26T01:08:51.239Z,19.31
2022-08-26T01:09:38.243Z,18.69
2022-08-26T01:10:31.161Z,19.39
2022-08-26T01:11:18.154Z,18.67
2022-08-26T01:12:06.160Z,19.34
2022-08-26T01:12:59.559Z,20.39
2022-08-26T01:13:48.725Z,22.28
2022-08-26T01:14:36.901Z,21.33
2022-08-26T01:15:32.800Z,19.44
2022-08-26T01:16:19.507Z,21.08
2022-08-26T01:17:09.142Z,22.96
2022-08-26T01:17:56.027Z,24.31
2022-08-26T01:18:44.468Z,24.94
2022-08-26T01:19:41.120Z,24.14
2022-08-26T01:20:59.687Z,23.17
2022-08-26T01:22:30.396Z,25.42
2022-08-26T01:23:18.355Z,26.78
2022-08-26T01:24:10.724Z,26.79
2022-08-26T01:25:00.979Z,26.96
2022-08-26T01:25:56.474Z,25.70
2022-08-26T01:26:45.283Z,27.57
2022-08-26T01:27:33.712Z,29.16
2022-08-26T01:28:27.125Z,29.69
2022-08-26T01:29:19.066Z,28.81
2022-08-26T01:30:07.512Z,29.52
2022-08-26T01:30:56.575Z,29.05
2022-08-26T01:31:50.032Z,31.49
2022-08-26T01:32:40.355Z,33.29
2022-08-26T01:33:42.130Z,34.72
2022-08-26T01:34:34.908Z,35.32
2022-08-26T01:35:21.636Z,37.57
2022-08-26T01:36:08.737Z,41.55
2022-08-26T01:37:18.097Z,41.19
2022-08-26T01:38:04.742Z,42.63
2022-08-26T01:38:51.509Z,43.27
2022-08-26T01:39:40.075Z,42.56
2022-08-26T01:40:32.951Z,42.19
2022-08-26T01:41:27.181Z,44.64
2022-08-26T01:42:16.718Z,45.23
2022-08-26T01:43:07.617Z,48.28
2022-08-26T01:43:57.959Z,48.89
2022-08-26T01:44:57.578Z,47.97
2022-08-26T01:45:48.191Z,49.56
2022-08-26T01:46:35.411Z,50.92
2022-08-26T01:47:26.331Z,48.48
2022-08-26T01:48:19.663Z,46.11
2022-08-26T01:49:08.482Z,48.66
2022-08-26T01:49:59.703Z,50.33
2022-08-26T01:50:48.157Z,53.08
2022-08-26T01:51:38.518Z,54.46
2022-08-26T01:52:28.777Z,54.46
2022-08-26T01:53:18.506Z,52.74
2022-08-26T01:54:12.062Z,56.54
2022-08-26T01:55:00.984Z,57.58
2022-08-26T01:55:52.904Z,55.13
2022-08-26T01:56:39.588Z,53.35
2022-08-26T01:57:28.705Z,51.85
2022-08-26T01:58:26.441Z,51.98
2022-08-26T01:59:16.951Z,53.49
2022-08-26T02:00:13.249Z,53.82
2022-08-26T02:01:05.358Z,55.86
2022-08-26T02:01:54.067Z,57.08
2022-08-26T02:02:44.887Z,57.85
2022-08-26T02:03:33.074Z,59.73
2022-08-26T02:04:37.678Z,61.61
2022-08-26T02:05:24.329Z,57.99
2022-08-26T02:06:11.067Z,59.44
2022-08-26T02:07:04.636Z,61.60
2022-08-26T02:07:51.437Z,60.07
2022-08-26T02:08:45.612Z,57.91
2022-08-26T02:09:32.487Z,60.74
2022-08-26T02:10:25.102Z,61.85
2022-08-26T02:11:13.792Z,63.62
2022-08-26T02:12:02.170Z,63.99
2022-08-26T02:12:48.876Z,59.55
2022-08-26T02:13:42.064Z,59.98
2022-08-26T02:14:35.476Z,60.58
2022-08-26T02:15:30.946Z,59.19
2022-08-26T02:16:22.441Z,59.76
2022-08-26T02:17:11.056Z,59.91
2022-08-26T02:17:57.673Z,59.58
2022-08-26T02:18:46.860Z,63.10
2022-08-26T02:19:39.040Z,61.94
2022-08-26T02:20:26.573Z,64.51
2022-08-26T02:21:14.142Z,62.98
2022-08-26T02:22:05.495Z,59.81
2022-08-26T02:22:52.482Z,62.22
2022-08-26T02:23:39.984Z,61.71
2022-08-26T02:24:30.566Z,61.26
2022-08-26T02:25:39.926Z,62.76
2022-08-26T02:26:26.841Z,63.32
2022-08-26T02:27:16.389Z,63.15
2022-08-26T02:28:03.272Z,62.22
2022-08-26T02:29:05.609Z,62.22
2022-08-26T02:30:06.816Z,63.33
2022-08-26T02:30:55.430Z,63.50
2022-08-26T02:31:42.216Z,62.20
2022-08-26T02:32:29.256Z,62.51
2022-08-26T02:33:15.681Z,63.28
2022-08-26T02:34:16.498Z,63.50
2022-08-26T02:35:03.260Z,63.30
2022-08-26T02:35:49.753Z,62.08
2022-08-26T02:36:36.428Z,62.19
2022-08-26T02:37:23.137Z,64.62
2022-08-26T02:38:11.183Z,64.77
2022-08-26T02:38:59.148Z,61.89
2022-08-26T02:39:45.833Z,61.18
2022-08-26T02:40:40.388Z,60.42
2022-08-26T02:41:28.438Z,62.47
2022-08-26T02:42:14.879Z,64.62
2022-08-26T02:43:01.438Z,62.34
2022-08-26T02:43:49.030Z,61.56
2022-08-26T02:44:35.562Z,61.93
2022-08-26T02:45:23.251Z,60.59
2022-08-26T02:46:10.392Z,61.33
2022-08-26T02:46:58.017Z,60.43
2022-08-26T02:47:45.224Z,62.19
2022-08-26T02:48:33.285Z,61.75
2022-08-26T02:49:20.683Z,60.80
2022-08-26T02:50:07.600Z,63.18
2022-08-26T02:50:54.556Z,60.72
2022-08-26T02:51:41.025Z,60.38
2022-08-26T02:52:29.647Z,57.85
2022-08-26T02:53:19.211Z,57.22
2022-08-26T02:54:12.528Z,61.58
2022-08-26T02:54:59.213Z,59.27
2022-08-26T02:55:49.365Z,58.55
2022-08-26T02:56:36.636Z,60.56
2022-08-26T02:57:23.315Z,60.26
2022-08-26T02:58:11.294Z,59.81
2022-08-26T02:58:58.427Z,60.88
2022-08-26T02:59:45.321Z,59.61
2022-08-26T03:00:32.915Z,58.06
2022-08-26T03:01:32.389Z,57.67
2022-08-26T03:02:19.158Z,58.93
2022-08-26T03:03:06.359Z,57.64
2022-08-26T03:03:54.587Z,57.54
2022-08-26T03:04:41.115Z,59.26
2022-08-26T03:05:45.004Z,57.78
2022-08-26T03:06:31.850Z,57.97
2022-08-26T03:07:20.132Z,58.62
2022-08-26T03:08:07.039Z,58.60
2022-08-26T03:08:54.012Z,56.68
2022-08-26T03:09:40.875Z,57.32
2022-08-26T03:10:28.362Z,57.68
2022-08-26T03:11:15.688Z,56.13
2022-08-26T03:12:02.740Z,57.27
2022-08-26T03:12:49.345Z,57.18
2022-08-26T03:13:39.715Z,55.64
2022-08-26T03:14:26.669Z,54.99
2022-08-26T03:15:17.872Z,53.26
2022-08-26T03:16:05.828Z,53.42
2022-08-26T03:16:54.278Z,53.21
2022-08-26T03:17:40.748Z,52.67
2022-08-26T03:18:27.293Z,53.21
2022-08-26T03:19:13.727Z,53.98
2022-08-26T03:20:08.697Z,52.39
2022-08-26T03:20:55.186Z,53.78
2022-08-26T03:21:41.664Z,52.72
2022-08-26T03:22:29.428Z,54.01
2022-08-26T03:23:16.407Z,54.18
2022-08-26T03:24:06.070Z,52.40
2022-08-26T03:24:52.549Z,51.69
2022-08-26T03:25:40.092Z,52.77
2022-08-26T03:26:27.400Z,51.72
2022-08-26T03:27:14.406Z,50.78
2022-08-26T03:28:00.933Z,49.78
2022-08-26T03:29:05.880Z,50.03
2022-08-26T03:30:11.836Z,51.04
2022-08-26T03:30:58.686Z,50.17
2022-08-26T03:31:46.993Z,49.48
2022-08-26T03:32:33.629Z,49.71
2022-08-26T03:33:20.646Z,48.88
2022-08-26T03:34:07.142Z,49.65
2022-08-26T03:34:54.231Z,50.29
2022-08-26T03:35:43.356Z,46.00
2022-08-26T03:36:30.565Z,48.27
2022-08-26T03:37:17.037Z,48.76
2022-08-26T03:38:08.169Z,48.39
2022-08-26T03:38:54.674Z,46.73
2022-08-26T03:39:41.640Z,47.73
2022-08-26T03:40:29.052Z,49.29
2022-08-26T03:41:17.535Z,49.53
2022-08-26T03:42:05.289Z,47.51
2022-08-26T03:42:53.144Z,45.63
2022-08-26T03:43:40.314Z,47.11
2022-08-26T03:44:27.363Z,46.15
2022-08-26T03:45:15.833Z,45.44
2022-08-26T03:46:08.081Z,45.25
2022-08-26T03:46:54.998Z,44.79
2022-08-26T03:47:42.465Z,45.06
2022-08-26T03:48:28.982Z,44.67
2022-08-26T03:49:16.847Z,44.59
2022-08-26T03:50:05.342Z,44.82
2022-08-26T03:50:51.963Z,43.60
2022-08-26T03:51:39.103Z,44.59
2022-08-26T03:52:25.670Z,46.66
2022-08-26T03:53:13.075Z,44.16
2022-08-26T03:54:00.613Z,43.10
2022-08-26T03:54:47.237Z,44.58
2022-08-26T03:55:33.837Z,43.32
2022-08-26T03:56:20.277Z,44.62
2022-08-26T03:57:06.699Z,44.66
2022-08-26T03:57:53.407Z,43.29
2022-08-26T03:58:42.813Z,43.35
2022-08-26T03:59:29.568Z,45.93
2022-08-26T04:00:18.509Z,43.50
2022-08-26T04:01:05.185Z,42.65
2022-08-26T04:01:52.071Z,44.17
2022-08-26T04:02:38.850Z,42.88
2022-08-26T04:03:45.194Z,43.39
2022-08-26T04:04:31.932Z,43.15
2022-08-26T04:05:20.025Z,43.40
2022-08-26T04:06:06.923Z,44.69
2022-08-26T04:06:58.461Z,44.76
2022-08-26T04:07:46.324Z,45.27
2022-08-26T04:08:35.408Z,44.41
2022-08-26T04:09:21.956Z,45.35
2022-08-26T04:10:11.326Z,43.59
2022-08-26T04:10:58.175Z,43.89
2022-08-26T04:11:46.132Z,45.06
2022-08-26T04:12:38.612Z,46.45
2022-08-26T04:13:25.054Z,44.31
2022-08-26T04:14:17.686Z,43.24
2022-08-26T04:15:14.137Z,44.26
2022-08-26T04:16:00.833Z,44.87
2022-08-26T04:16:50.026Z,44.49
2022-08-26T04:17:37.594Z,45.02
2022-08-26T04:18:24.288Z,43.55
2022-08-26T04:19:14.306Z,44.06
2022-08-26T04:20:00.972Z,44.13
2022-08-26T04:20:49.204Z,44.82
2022-08-26T04:21:38.179Z,46.79
2022-08-26T04:22:25.202Z,46.15
2022-08-26T04:23:12.800Z,45.21
2022-08-26T04:23:59.535Z,45.44
2022-08-26T04:24:50.179Z,41.87
2022-08-26T04:25:37.109Z,43.58
2022-08-26T04:26:27.081Z,46.44
2022-08-26T04:27:13.534Z,47.18
2022-08-26T04:28:00.067Z,45.62
2022-08-26T04:28:48.050Z,45.27
2022-08-26T04:29:34.557Z,44.74
2022-08-26T04:30:21.811Z,46.10
2022-08-26T04:31:12.496Z,42.58
2022-08-26T04:31:59.079Z,41.61
2022-08-26T04:32:45.565Z,44.11
2022-08-26T04:33:32.417Z,44.19
2022-08-26T04:34:19.762Z,45.51
2022-08-26T04:35:07.001Z,44.73
2022-08-26T04:36:05.779Z,44.59
2022-08-26T04:36:52.688Z,45.26
2022-08-26T04:37:39.229Z,44.93
2022-08-26T04:38:30.251Z,44.37
2022-08-26T04:39:20.006Z,44.55
2022-08-26T04:40:10.069Z,44.85
2022-08-26T04:40:57.364Z,43.96
2022-08-26T04:41:44.649Z,43.17
2022-08-26T04:42:33.234Z,42.32
2022-08-26T04:43:20.748Z,41.68
2022-08-26T04:44:07.689Z,41.16
2022-08-26T04:44:54.178Z,40.51
2022-08-26T04:45:42.236Z,39.75
2022-08-26T04:46:29.244Z,41.40
2022-08-26T04:47:15.931Z,39.97
2022-08-26T04:48:03.037Z,41.24
2022-08-26T04:48:52.981Z,40.09
2022-08-26T04:49:39.426Z,40.95
2022-08-26T04:50:26.669Z,38.98
2022-08-26T04:51:13.258Z,39.41
2022-08-26T04:51:59.994Z,38.30
2022-08-26T04:52:46.495Z,40.06
2022-08-26T04:53:33.527Z,39.42
2022-08-26T04:54:20.736Z,38.95
2022-08-26T04:55:08.555Z,37.92
2022-08-26T04:55:55.586Z,38.18
2022-08-26T04:56:45.560Z,38.69
2022-08-26T04:57:33.648Z,38.50
2022-08-26T04:58:24.710Z,38.07
2022-08-26T04:59:16.958Z,37.34
2022-08-26T05:00:07.458Z,37.43
2022-08-26T05:00:56.447Z,38.99
2022-08-26T05:01:49.408Z,36.25
2022-08-26T05:02:36.344Z,36.21
2022-08-26T05:03:24.559Z,35.32
2022-08-26T05:04:11.331Z,35.07
2022-08-26T05:04:58.610Z,35.68
2022-08-26T05:05:49.804Z,34.72
2022-08-26T05:06:36.886Z,34.81
2022-08-26T05:07:23.800Z,34.44
2022-08-26T05:08:15.116Z,32.89
2022-08-26T05:09:02.050Z,32.89
2022-08-26T05:09:51.343Z,34.09
2022-08-26T05:10:44.711Z,33.86
2022-08-26T05:11:31.613Z,33.68
2022-08-26T05:12:18.635Z,33.82
2022-08-26T05:13:11.137Z,33.21
2022-08-26T05:14:02.184Z,32.07
2022-08-26T05:14:49.019Z,32.03
2022-08-26T05:15:36.829Z,31.78
2022-08-26T05:16:23.338Z,31.66
2022-08-26T05:17:09.887Z,31.66
2022-08-26T05:18:03.844Z,31.36
2022-08-26T05:18:50.377Z,31.32
2022-08-26T05:19:37.341Z,32.22
2022-08-26T05:20:29.355Z,32.73
2022-08-26T05:21:24.150Z,32.37
2022-08-26T05:22:10.637Z,31.29
2022-08-26T05:23:00.776Z,29.87
2022-08-26T05:23:51.176Z,31.22
2022-08-26T05:24:37.608Z,31.06
2022-08-26T05:25:24.596Z,31.53
2022-08-26T05:26:14.703Z,30.63
2022-08-26T05:27:03.112Z,30.04
2022-08-26T05:27:58.013Z,30.92
2022-08-26T05:28:45.801Z,29.73
2022-08-26T05:29:34.526Z,30.35
2022-08-26T05:30:23.423Z,30.11
2022-08-26T05:31:20.714Z,29.64
2022-08-26T05:32:07.478Z,30.99
2022-08-26T05:32:55.405Z,29.51
2022-08-26T05:33:43.261Z,28.50
2022-08-26T05:34:30.392Z,28.04
2022-08-26T05:35:17.894Z,28.16
2022-08-26T05:36:12.838Z,28.76
2022-08-26T05:36:59.936Z,28.06
2022-08-26T05:37:46.355Z,27.89
2022-08-26T05:38:33.004Z,27.51
2022-08-26T05:39:21.396Z,26.69
2022-08-26T05:40:08.645Z,27.12
2022-08-26T05:40:57.052Z,27.05
2022-08-26T05:41:44.797Z,27.36
2022-08-26T05:42:33.385Z,27.89
2022-08-26T05:43:21.170Z,26.88
2022-08-26T05:44:12.601Z,26.89
2022-08-26T05:45:00.659Z,26.36
2022-08-26T05:45:49.835Z,26.00
2022-08-26T05:46:38.029Z,26.55
2022-08-26T05:47:26.149Z,25.17
2022-08-26T05:48:14.651Z,26.14
2022-08-26T05:49:05.195Z,25.36
2022-08-26T05:49:52.432Z,25.26
2022-08-26T05:50:43.217Z,26.22
2022-08-26T05:51:30.882Z,25.63
2022-08-26T05:52:17.601Z,25.10
2022-08-26T05:53:09.907Z,25.62
2022-08-26T05:53:56.679Z,26.50
2022-08-26T05:54:44.673Z,25.44
2022-08-26T05:55:34.858Z,24.11
2022-08-26T05:56:27.764Z,24.15
2022-08-26T05:57:14.981Z,23.59
2022-08-26T05:58:02.719Z,22.79
2022-08-26T05:58:49.321Z,24.20
2022-08-26T05:59:36.803Z,24.02
2022-08-26T06:00:25.341Z,23.03
2022-08-26T06:01:20.161Z,23.90
2022-08-26T06:02:08.058Z,21.53
2022-08-26T06:02:55.396Z,21.91
2022-08-26T06:03:46.173Z,23.87
2022-08-26T06:04:35.864Z,22.82
2022-08-26T06:05:23.447Z,22.55
2022-08-26T06:06:17.174Z,22.84
2022-08-26T06:07:07.966Z,22.79
2022-08-26T06:08:11.191Z,22.51
2022-08-26T06:08:59.665Z,21.08
2022-08-26T06:09:46.219Z,21.76
2022-08-26T06:10:33.361Z,22.44
2022-08-26T06:11:25.262Z,22.42
2022-08-26T06:12:12.880Z,22.46
2022-08-26T06:13:09.417Z,21.42
2022-08-26T06:14:03.792Z,21.04
2022-08-26T06:14:51.202Z,21.42
2022-08-26T06:15:46.593Z,21.66
2022-08-26T06:16:38.500Z,22.33
2022-08-26T06:17:27.189Z,21.60
2022-08-26T06:18:18.074Z,21.78
2022-08-26T06:19:10.547Z,21.46
2022-08-26T06:19:58.213Z,21.35
2022-08-26T06:20:56.895Z,21.70
2022-08-26T06:21:53.966Z,22.15
2022-08-26T06:23:03.755Z,22.03
2022-08-26T06:24:12.185Z,21.05
2022-08-26T06:25:17.571Z,21.55
2022-08-26T06:26:05.598Z,21.27
2022-08-26T06:27:04.644Z,20.94
2022-08-26T06:27:51.155Z,20.75
2022-08-26T06:28:37.775Z,20.83
2022-08-26T06:29:26.001Z,20.02
2022-08-26T06:30:12.911Z,20.25
2022-08-26T06:31:09.242Z,18.50
2022-08-26T06:31:57.603Z,19.17
2022-08-26T06:32:44.100Z,19.27
2022-08-26T06:33:31.208Z,19.56
2022-08-26T06:34:17.708Z,19.83
2022-08-26T06:35:04.676Z,20.23
2022-08-26T06:35:51.865Z,19.82
2022-08-26T06:36:40.340Z,19.52
2022-08-26T06:37:30.428Z,19.78
2022-08-26T06:38:18.388Z,19.70
2022-08-26T06:39:09.421Z,20.06
2022-08-26T06:39:56.121Z,18.76
2022-08-26T06:40:50.837Z,18.52
2022-08-26T06:41:43.156Z,19.03
2022-08-26T06:42:33.015Z,19.38
2022-08-26T06:43:24.361Z,20.38
2022-08-26T06:44:14.541Z,18.31
2022-08-26T06:45:01.394Z,18.31
2022-08-26T06:45:50.600Z,19.31
2022-08-26T06:46:37.918Z,19.12
2022-08-26T06:47:24.408Z,19.50
2022-08-26T06:48:13.553Z,20.63
2022-08-26T06:49:00.824Z,19.99
2022-08-26T06:49:47.201Z,18.28
2022-08-26T06:50:35.084Z,19.39
2022-08-26T06:51:26.520Z,19.63
2022-08-26T06:52:13.310Z,19.98
2022-08-26T06:52:59.760Z,20.15
2022-08-26T06:53:49.556Z,19.47
2022-08-26T06:54:36.970Z,18.87
2022-08-26T06:55:26.995Z,18.68
2022-08-26T06:56:16.731Z,19.43
2022-08-26T06:57:03.194Z,18.95
2022-08-26T06:57:50.390Z,18.30
2022-08-26T06:58:38.991Z,18.63
2022-08-26T06:59:27.141Z,19.03
2022-08-26T07:00:15.429Z,19.01
2022-08-26T07:01:09.143Z,18.82
2022-08-26T07:01:58.378Z,19.04
2022-08-26T07:02:46.824Z,18.80
2022-08-26T07:03:39.476Z,19.81
2022-08-26T07:04:27.821Z,18.13
2022-08-26T07:05:14.879Z,18.03
2022-08-26T07:06:03.666Z,19.04
2022-08-26T07:06:53.370Z,20.13
2022-08-26T07:07:40.459Z,19.00
2022-08-26T07:08:26.924Z,18.85
2022-08-26T07:09:13.454Z,18.19
2022-08-26T07:10:00.425Z,18.19
2022-08-26T07:10:48.059Z,18.08
2022-08-26T07:11:37.324Z,19.05
2022-08-26T07:12:29.204Z,18.42
2022-08-26T07:13:16.376Z,19.08
2022-08-26T07:14:19.412Z,18.61
2022-08-26T07:15:08.967Z,18.76
2022-08-26T07:15:57.849Z,18.55
2022-08-26T07:16:50.752Z,18.48
2022-08-26T07:17:37.943Z,18.06
2022-08-26T07:18:24.660Z,20.94
2022-08-26T07:19:11.595Z,20.14
2022-08-26T07:19:58.171Z,20.38
2022-08-26T07:20:45.947Z,21.15
2022-08-26T07:21:32.941Z,21.37
2022-08-26T07:22:20.864Z,21.34
2022-08-26T07:23:10.021Z,22.10
2022-08-26T07:24:01.290Z,20.42
2022-08-26T07:24:48.276Z,21.97
2022-08-26T07:25:39.373Z,23.52
2022-08-26T07:26:30.250Z,23.81
2022-08-26T07:27:17.845Z,25.81
2022-08-26T07:28:05.039Z,26.61
2022-08-26T07:28:53.441Z,24.72
2022-08-26T07:29:43.444Z,21.35
2022-08-26T07:30:29.917Z,20.90
2022-08-26T07:31:17.652Z,22.32
2022-08-26T07:32:05.132Z,21.17
2022-08-26T07:32:51.707Z,20.95
2022-08-26T07:33:39.787Z,21.39
2022-08-26T07:34:27.968Z,20.74
2022-08-26T07:35:14.501Z,20.92
2022-08-26T07:36:01.334Z,20.24
2022-08-26T07:36:51.644Z,20.00
2022-08-26T07:37:39.354Z,20.29
2022-08-26T07:38:26.018Z,19.64
2022-08-26T07:39:12.653Z,19.50
2022-08-26T07:39:59.408Z,19.29
2022-08-26T07:40:47.284Z,18.11
2022-08-26T07:41:34.405Z,18.62
2022-08-26T07:42:21.197Z,18.08
2022-08-26T07:43:09.705Z,17.21
2022-08-26T07:43:56.914Z,15.72
2022-08-26T07:44:44.103Z,17.24
2022-08-26T07:45:30.581Z,16.34
2022-08-26T07:46:20.634Z,16.01
2022-08-26T07:47:10.072Z,16.09
2022-08-26T07:48:11.035Z,16.14
2022-08-26T07:48:57.916Z,17.26
2022-08-26T07:49:44.554Z,16.66
2022-08-26T07:50:49.965Z,16.13
2022-08-26T07:51:37.584Z,16.39
2022-08-26T07:52:27.685Z,17.01
2022-08-26T07:53:14.656Z,16.80
2022-08-26T07:54:06.965Z,16.50
2022-08-26T07:54:53.661Z,16.29
2022-08-26T07:55:40.442Z,16.10
2022-08-26T07:56:27.148Z,15.70
2022-08-26T07:57:14.756Z,15.07
2022-08-26T07:58:02.471Z,15.68
2022-08-26T07:58:51.620Z,17.13
2022-08-26T07:59:38.566Z,17.32
2022-08-26T08:00:26.693Z,16.95
2022-08-26T08:01:13.211Z,16.85
2022-08-26T08:02:01.521Z,17.97
2022-08-26T08:02:48.659Z,17.84
2022-08-26T08:03:36.502Z,17.59
2022-08-26T08:04:26.523Z,16.32
2022-08-26T08:05:19.175Z,16.57
2022-08-26T08:06:06.504Z,15.47
2022-08-26T08:06:54.443Z,15.28
2022-08-26T08:07:44.826Z,15.24
2022-08-26T08:08:32.813Z,14.85
2022-08-26T08:09:19.751Z,14.81
2022-08-26T08:10:11.334Z,15.07
2022-08-26T08:10:59.639Z,15.34
2022-08-26T08:11:46.549Z,14.40
2022-08-26T08:12:34.778Z,14.02
2022-08-26T08:13:21.365Z,14.49
2022-08-26T08:14:11.623Z,14.73
2022-08-26T08:14:58.582Z,15.34
2022-08-26T08:15:46.032Z,15.08
2022-08-26T08:16:33.201Z,15.56
2022-08-26T08:17:20.121Z,15.66
2022-08-26T08:18:15.434Z,16.08
2022-08-26T08:19:02.632Z,16.77
2022-08-26T08:19:50.517Z,17.19
2022-08-26T08:20:37.137Z,15.50
2022-08-26T08:21:26.336Z,14.67
2022-08-26T08:22:17.779Z,14.02
2022-08-26T08:23:06.643Z,14.24
2022-08-26T08:23:56.442Z,13.80
2022-08-26T08:24:43.461Z,14.52
2022-08-26T08:25:32.478Z,14.87
2022-08-26T08:26:19.063Z,14.42
2022-08-26T08:27:05.975Z,14.84
2022-08-26T08:27:52.625Z,14.11
2022-08-26T08:28:39.437Z,14.75
2022-08-26T08:29:30.849Z,14.75
2022-08-26T08:30:23.107Z,13.99
2022-08-26T08:31:11.226Z,15.25
2022-08-26T08:31:58.444Z,16.16
2022-08-26T08:32:46.388Z,15.57
2022-08-26T08:33:34.997Z,15.16
2022-08-26T08:34:22.393Z,15.15
2022-08-26T08:35:13.389Z,14.59
2022-08-26T08:36:01.888Z,14.48
2022-08-26T08:36:49.332Z,14.86
2022-08-26T08:37:36.255Z,14.93
2022-08-26T08:38:23.815Z,15.43
2022-08-26T08:39:11.561Z,15.56
2022-08-26T08:39:58.338Z,16.22
2022-08-26T08:40:46.449Z,15.45
2022-08-26T08:41:54.722Z,15.81
2022-08-26T08:42:47.134Z,16.72
2022-08-26T08:43:44.854Z,16.72
2022-08-26T08:44:31.616Z,16.34
2022-08-26T08:45:38.230Z,16.00
2022-08-26T08:46:26.036Z,16.34
2022-08-26T08:47:43.564Z,16.94
2022-08-26T08:48:44.579Z,16.19
2022-08-26T08:49:33.824Z,17.13
2022-08-26T08:50:40.432Z,17.62
2022-08-26T08:51:39.776Z,17.89
2022-08-26T08:52:33.308Z,18.08
2022-08-26T08:53:35.440Z,18.01
2022-08-26T08:54:26.390Z,18.11
2022-08-26T08:55:18.045Z,18.28
2022-08-26T08:56:17.438Z,17.56
2022-08-26T08:57:12.097Z,19.48
2022-08-26T08:58:17.116Z,18.69
2022-08-26T08:59:27.535Z,17.90
2022-08-26T09:00:18.833Z,16.84
2022-08-26T09:01:25.612Z,17.35
2022-08-26T09:02:34.470Z,17.89
2022-08-26T09:03:55.379Z,17.80
2022-08-26T09:04:47.962Z,17.83
2022-08-26T09:05:48.512Z,16.71
2022-08-26T09:06:35.726Z,16.92
2022-08-26T09:07:47.043Z,15.82
2022-08-26T09:08:37.331Z,16.44
2022-08-26T09:09:41.300Z,15.16
2022-08-26T09:10:38.872Z,15.85
2022-08-26T09:11:25.627Z,16.92
2022-08-26T09:12:29.459Z,16.74
2022-08-26T09:13:25.107Z,16.86
2022-08-26T09:14:12.981Z,16.89
2022-08-26T09:15:23.948Z,15.68
2022-08-26T09:16:21.708Z,15.89
2022-08-26T09:17:18.399Z,16.28
2022-08-26T09:18:23.457Z,15.43
2022-08-26T09:19:25.810Z,15.77
2022-08-26T09:20:22.386Z,15.90
2022-08-26T09:21:12.285Z,14.86
2022-08-26T09:22:03.678Z,14.94
2022-08-26T09:22:52.591Z,14.26
2022-08-26T09:23:43.132Z,15.45
2022-08-26T09:24:33.476Z,16.25
2022-08-26T09:25:20.085Z,16.88
2022-08-26T09:26:28.727Z,19.20
2022-08-26T09:27:50.460Z,20.91
2022-08-26T09:28:42.366Z,19.83
2022-08-26T09:29:33.890Z,19.79
2022-08-26T09:30:31.458Z,19.08
2022-08-26T09:31:28.610Z,19.14
2022-08-26T09:32:24.544Z,20.15
2022-08-26T09:33:17.567Z,18.75
2022-08-26T09:34:12.465Z,18.15
2022-08-26T09:35:23.850Z,17.94
2022-08-26T09:36:35.420Z,16.52
2022-08-26T09:37:41.650Z,16.14
2022-08-26T09:38:34.007Z,16.15
2022-08-26T09:39:24.164Z,15.71
2022-08-26T09:40:17.634Z,16.17
2022-08-26T09:41:08.219Z,17.59
2022-08-26T09:42:03.443Z,17.65
2022-08-26T09:43:16.082Z,17.99
2022-08-26T09:44:14.435Z,18.14
2022-08-26T09:45:10.415Z,17.39
2022-08-26T09:46:15.586Z,17.42
2022-08-26T09:47:06.779Z,17.04
2022-08-26T09:47:57.710Z,17.16
2022-08-26T09:48:48.391Z,17.00
2022-08-26T09:49:41.272Z,16.74
2022-08-26T09:50:34.918Z,16.83
2022-08-26T09:51:26.327Z,17.16
2022-08-26T09:52:23.825Z,17.67
2022-08-26T09:53:30.504Z,18.78
2022-08-26T09:54:30.144Z,19.97
2022-08-26T09:55:23.794Z,19.55
2022-08-26T09:56:16.531Z,19.19
2022-08-26T09:57:26.267Z,17.62
2022-08-26T09:58:37.984Z,17.31
2022-08-26T09:59:32.093Z,18.18
2022-08-26T10:00:34.733Z,18.43
2022-08-26T10:01:41.830Z,16.57
2022-08-26T10:02:34.207Z,16.64
2022-08-26T10:03:28.341Z,17.13
2022-08-26T10:04:24.848Z,16.36
2022-08-26T10:05:18.934Z,14.72
2022-08-26T10:06:23.889Z,16.15
2022-08-26T10:07:11.917Z,15.43
2022-08-26T10:07:59.674Z,15.31
2022-08-26T10:08:52.228Z,15.31
2022-08-26T10:09:44.378Z,14.96
2022-08-26T10:10:40.626Z,14.57
2022-08-26T10:11:42.427Z,14.84
2022-08-26T10:12:35.601Z,14.59
2022-08-26T10:13:31.161Z,14.62
2022-08-26T10:14:37.026Z,14.23
2022-08-26T10:15:27.753Z,14.63
2022-08-26T10:16:19.210Z,13.66
2022-08-26T10:17:29.064Z,15.21
2022-08-26T10:18:41.342Z,14.54
2022-08-26T10:19:56.211Z,16.35
2022-08-26T10:20:55.974Z,18.72
2022-08-26T10:22:04.306Z,18.14
2022-08-26T10:23:09.707Z,17.89
2022-08-26T10:24:01.931Z,17.68
2022-08-26T10:24:55.319Z,16.27
2022-08-26T10:25:52.141Z,16.82
2022-08-26T10:26:49.970Z,16.96
2022-08-26T10:27:58.869Z,16.46
2022-08-26T10:29:06.793Z,16.11
2022-08-26T10:30:05.169Z,16.59
2022-08-26T10:31:03.224Z,17.08
2022-08-26T10:32:02.481Z,16.52
2022-08-26T10:33:03.438Z,16.14
2022-08-26T10:33:50.297Z,15.97
2022-08-26T10:34:38.433Z,14.70
2022-08-26T10:35:26.923Z,14.55
2022-08-26T10:36:52.369Z,14.19
2022-08-26T10:37:56.958Z,12.21
2022-08-26T10:38:44.434Z,12.19
2022-08-26T10:39:58.476Z,12.01
2022-08-26T10:41:10.540Z,11.71
2022-08-26T10:42:20.074Z,12.11
2022-08-26T10:43:17.028Z,12.74
2022-08-26T10:44:10.344Z,13.78
2022-08-26T10:45:07.595Z,13.99
2022-08-26T10:46:04.467Z,14.08
2022-08-26T10:46:56.244Z,14.28
2022-08-26T10:47:51.820Z,13.75
2022-08-26T10:48:41.417Z,13.48
2022-08-26T10:49:28.644Z,13.78
2022-08-26T10:50:15.195Z,14.36
2022-08-26T10:51:06.214Z,13.07
2022-08-26T10:52:20.363Z,13.88
2022-08-26T10:53:26.435Z,13.69
2022-08-26T10:54:13.130Z,13.42
2022-08-26T10:55:04.500Z,14.07
2022-08-26T10:55:54.431Z,13.73
2022-08-26T10:57:10.417Z,13.75
2022-08-26T10:58:12.383Z,13.15
2022-08-26T10:59:28.899Z,13.07